Time;durP1;ratioP1;P1;durP2;ratioP2;P2;SDS_P1;SDS_P2;PMS_P1;PMS_P2;Temp;Humidity;BMP_temperature;BMP_pressure;BME280_temperature;BME280_humidity;BME280_pressure;Samples;Min_cycle;Max_cycle;Signal;HPM_P1;HPM_P2
2024/02/09 00:02:24;;;;;;;3.28;2.08;;;;;;;;;;5887309;28;20048;-77
2024/02/09 00:05:17;;;;;;;9.95;3.38;;;;;;;;;;5887399;28;20049;-77
2024/02/09 00:08:08;;;;;;;6.68;3.30;;;;;;;;;;5887081;28;20150;-77
2024/02/09 00:10:59;;;;;;;3.40;2.63;;;;;;;;;;5886323;28;20049;-77
2024/02/09 00:13:50;;;;;;;8.27;4.40;;;;;;;;;;5887348;28;20060;-77
2024/02/09 00:16:40;;;;;;;6.28;3.10;;;;;;;;;;5887154;28;20044;-77
2024/02/09 00:19:31;;;;;;;6.30;2.90;;;;;;;;;;5887210;28;20678;-77
2024/02/09 00:22:22;;;;;;;3.00;2.47;;;;;;;;;;5885311;28;20045;-77
2024/02/09 00:25:13;;;;;;;8.95;3.83;;;;;;;;;;5884969;28;20494;-77
2024/02/09 00:28:05;;;;;;;2.85;2.15;;;;;;;;;;5885745;28;20048;-77
2024/02/09 00:30:56;;;;;;;3.85;3.05;;;;;;;;;;5886751;28;20057;-77
2024/02/09 00:33:47;;;;;;;8.65;3.25;;;;;;;;;;5869080;28;20390;-77
2024/02/09 00:36:38;;;;;;;7.28;3.50;;;;;;;;;;5886902;28;20041;-77
2024/02/09 00:39:33;;;;;;;4.00;2.60;;;;;;;;;;5887200;28;20049;-77
2024/02/09 00:42:24;;;;;;;4.50;3.22;;;;;;;;;;5886408;28;20045;-77
2024/02/09 00:45:15;;;;;;;2.72;1.95;;;;;;;;;;5884885;28;20049;-77
2024/02/09 00:48:06;;;;;;;4.05;2.80;;;;;;;;;;5886396;28;20049;-77
2024/02/09 00:50:57;;;;;;;6.78;4.82;;;;;;;;;;5886875;28;20037;-77
2024/02/09 00:53:48;;;;;;;3.92;2.25;;;;;;;;;;5885103;28;20061;-77
2024/02/09 00:56:41;;;;;;;6.72;4.35;;;;;;;;;;5901226;28;20048;-77
2024/02/09 00:59:33;;;;;;;11.48;3.65;;;;;;;;;;5886514;28;20052;-77
2024/02/09 01:02:25;;;;;;;5.07;2.97;;;;;;;;;;5891374;28;20060;-77
2024/02/09 01:05:18;;;;;;;4.68;3.45;;;;;;;;;;5905030;28;20056;-77
2024/02/09 01:08:09;;;;;;;4.70;2.22;;;;;;;;;;5924400;28;20075;-77
2024/02/09 01:11:00;;;;;;;3.83;2.58;;;;;;;;;;5908657;28;20048;-77
2024/02/09 02:45:17;;;;;;;1.02;0.73;;;;;;;;;;5923298;28;20127;-77
2024/02/09 03:07:05;;;;;;;1.48;1.30;;;;;;;;;;5924608;28;20185;-77
2024/02/09 03:10:16;;;;;;;1.73;1.50;;;;;;;;;;5911697;28;20202;-77
2024/02/09 03:13:07;;;;;;;1.67;1.20;;;;;;;;;;5927175;28;20460;-77
2024/02/09 03:15:58;;;;;;;1.48;1.35;;;;;;;;;;5910510;28;20127;-77
2024/02/09 03:18:49;;;;;;;1.55;1.45;;;;;;;;;;5910418;28;20046;-77
2024/02/09 03:21:40;;;;;;;6.07;2.78;;;;;;;;;;5911321;28;20044;-77
2024/02/09 03:24:31;;;;;;;1.98;1.67;;;;;;;;;;5911739;28;20056;-78
2024/02/09 03:27:22;;;;;;;5.38;2.10;;;;;;;;;;5911130;28;20447;-77
2024/02/09 03:30:16;;;;;;;1.20;1.08;;;;;;;;;;5909775;28;20052;-77
2024/02/09 03:33:07;;;;;;;1.55;1.45;;;;;;;;;;5926600;28;20516;-77
2024/02/09 03:35:58;;;;;;;3.40;1.50;;;;;;;;;;5911317;28;20048;-77
2024/02/09 03:38:49;;;;;;;2.83;1.30;;;;;;;;;;5926199;28;20051;-77
2024/02/09 03:41:40;;;;;;;1.77;1.48;;;;;;;;;;5926263;28;20044;-77
2024/02/09 03:44:31;;;;;;;1.42;1.33;;;;;;;;;;5911058;28;20040;-77
2024/02/09 03:47:26;;;;;;;2.30;1.83;;;;;;;;;;5910721;28;20052;-77
2024/02/09 03:50:17;;;;;;;6.47;1.25;;;;;;;;;;5925938;28;20048;-77
2024/02/09 03:53:08;;;;;;;1.63;1.23;;;;;;;;;;5910678;28;20131;-77
2024/02/09 03:56:01;;;;;;;1.80;1.67;;;;;;;;;;5925771;28;20090;-77
2024/02/09 03:58:52;;;;;;;1.67;1.17;;;;;;;;;;5911015;28;20040;-77
2024/02/09 04:01:43;;;;;;;2.92;1.65;;;;;;;;;;5909162;28;20044;-77
2024/02/09 04:04:34;;;;;;;2.05;1.08;;;;;;;;;;5925595;28;20553;-78
2024/02/09 04:07:25;;;;;;;1.33;0.93;;;;;;;;;;5925555;28;20036;-78
2024/02/09 04:10:15;;;;;;;1.35;0.82;;;;;;;;;;5908941;28;20127;-78
2024/02/09 04:13:26;;;;;;;1.40;1.10;;;;;;;;;;5910078;28;20056;-77
2024/02/09 04:16:19;;;;;;;2.53;1.88;;;;;;;;;;5925470;28;20491;-77
2024/02/09 04:19:10;;;;;;;2.50;1.58;;;;;;;;;;5910292;28;20420;-77
2024/02/09 04:22:01;;;;;;;2.15;1.33;;;;;;;;;;5892411;28;20044;-77
2024/02/09 04:24:51;;;;;;;1.40;0.95;;;;;;;;;;5910130;28;20048;-77
2024/02/09 04:27:44;;;;;;;3.65;1.02;;;;;;;;;;5908646;28;20044;-77
2024/02/09 04:30:35;;;;;;;1.40;1.30;;;;;;;;;;5909782;28;20486;-78
2024/02/09 04:33:25;;;;;;;0.98;0.98;;;;;;;;;;5908228;28;20055;-77
2024/02/09 04:36:17;;;;;;;1.95;1.52;;;;;;;;;;5908457;28;20048;-77
2024/02/09 04:39:10;;;;;;;0.77;0.77;;;;;;;;;;5909800;28;20413;-77
2024/02/09 04:42:01;;;;;;;1.98;1.33;;;;;;;;;;5908225;28;20059;-77
2024/02/09 04:44:51;;;;;;;0.57;0.57;;;;;;;;;;5908841;28;20051;-78
2024/02/09 04:47:42;;;;;;;2.35;1.35;;;;;;;;;;5909261;28;20561;-78
2024/02/09 04:50:33;;;;;;;1.67;1.35;;;;;;;;;;5924924;28;20067;-78
2024/02/09 04:53:23;;;;;;;1.10;1.00;;;;;;;;;;5924728;28;20056;-78
2024/02/09 04:56:26;;;;;;;1.42;1.20;;;;;;;;;;5908961;28;20079;-78
2024/02/09 04:59:17;;;;;;;2.78;1.65;;;;;;;;;;5907926;28;20521;-78
2024/02/09 05:02:10;;;;;;;1.40;1.30;;;;;;;;;;5907692;28;20052;-78
2024/02/09 05:05:02;;;;;;;1.15;1.05;;;;;;;;;;5924556;28;20261;-78
2024/02/09 05:07:53;;;;;;;0.98;0.93;;;;;;;;;;5907989;28;20052;-78
2024/02/09 05:10:46;;;;;;;1.42;1.10;;;;;;;;;;5923923;28;20520;-78
2024/02/09 05:13:37;;;;;;;1.80;1.23;;;;;;;;;;5909157;28;20044;-78
2024/02/09 05:16:28;;;;;;;0.95;0.95;;;;;;;;;;5907613;28;20459;-78
2024/02/09 05:19:19;;;;;;;2.03;1.75;;;;;;;;;;5907437;28;20044;-78
2024/02/09 05:22:10;;;;;;;0.80;0.77;;;;;;;;;;5924056;28;20040;-78
2024/02/09 05:25:02;;;;;;;2.03;1.63;;;;;;;;;;5908777;28;20044;-78
2024/02/09 05:27:53;;;;;;;2.85;1.33;;;;;;;;;;5924520;28;20052;-78
2024/02/09 05:30:44;;;;;;;2.78;1.52;;;;;;;;;;5907323;28;20044;-78
2024/02/09 05:33:35;;;;;;;1.45;1.30;;;;;;;;;;5924539;28;20474;-78
2024/02/09 05:36:28;;;;;;;2.30;1.95;;;;;;;;;;5924050;28;20052;-78
2024/02/09 05:39:19;;;;;;;1.25;1.17;;;;;;;;;;5924558;28;20041;-78
2024/02/09 05:42:10;;;;;;;5.53;1.55;;;;;;;;;;5908741;28;20041;-77
2024/02/09 05:45:05;;;;;;;4.63;1.70;;;;;;;;;;5923788;28;20397;-78
2024/02/09 05:47:56;;;;;;;3.13;2.00;;;;;;;;;;5907765;28;20052;-77
2024/02/09 05:50:48;;;;;;;1.58;1.15;;;;;;;;;;5908578;28;20096;-77
2024/02/09 05:53:40;;;;;;;2.28;1.80;;;;;;;;;;5907200;28;20055;-77
2024/02/09 05:56:31;;;;;;;1.90;1.77;;;;;;;;;;5907194;28;20101;-77
2024/02/09 05:59:22;;;;;;;5.35;1.63;;;;;;;;;;5907227;28;20040;-77
2024/02/09 06:02:13;;;;;;;3.20;1.45;;;;;;;;;;5907116;28;20052;-77
2024/02/09 06:05:04;;;;;;;6.60;2.13;;;;;;;;;;5924044;28;20044;-77
2024/02/09 06:07:55;;;;;;;2.65;1.48;;;;;;;;;;5908891;28;20051;-77
2024/02/09 06:10:48;;;;;;;3.63;2.08;;;;;;;;;;5908162;28;20040;-77
2024/02/09 06:13:45;;;;;;;2.25;1.75;;;;;;;;;;5923494;28;20659;-77
2024/02/09 06:16:36;;;;;;;1.77;1.55;;;;;;;;;;5906957;28;20383;-77
2024/02/09 06:19:27;;;;;;;3.78;3.40;;;;;;;;;;5908492;28;20052;-77
2024/02/09 06:22:18;;;;;;;3.08;1.42;;;;;;;;;;5925781;28;20051;-77
2024/02/09 06:25:08;;;;;;;6.10;2.65;;;;;;;;;;5912656;28;20048;-77
2024/02/09 06:28:02;;;;;;;5.57;2.80;;;;;;;;;;5913376;28;20068;-77
2024/02/09 06:30:55;;;;;;;3.30;2.95;;;;;;;;;;5911092;28;20535;-77
2024/02/09 06:33:49;;;;;;;3.95;2.38;;;;;;;;;;5927883;28;20405;-77
2024/02/09 06:36:42;;;;;;;2.15;1.75;;;;;;;;;;5910994;28;20090;-77
2024/02/09 06:39:33;;;;;;;2.42;2.22;;;;;;;;;;5927905;28;20040;-77
2024/02/09 06:42:24;;;;;;;2.00;1.70;;;;;;;;;;5910691;28;20359;-77
2024/02/09 06:45:16;;;;;;;2.03;1.70;;;;;;;;;;5912086;28;20056;-77
2024/02/09 06:48:07;;;;;;;2.70;2.38;;;;;;;;;;5910830;28;20044;-77
2024/02/09 06:50:58;;;;;;;4.43;3.05;;;;;;;;;;5911159;28;20048;-77
2024/02/09 06:53:51;;;;;;;4.45;2.63;;;;;;;;;;5927790;28;20040;-77
2024/02/09 06:56:42;;;;;;;6.72;3.55;;;;;;;;;;5911583;28;20040;-77
2024/02/09 06:59:33;;;;;;;4.28;1.95;;;;;;;;;;5910893;28;20048;-77
2024/02/09 07:02:24;;;;;;;3.63;2.15;;;;;;;;;;5927744;28;20044;-77
2024/02/09 07:05:19;;;;;;;1.70;1.48;;;;;;;;;;5911646;28;20045;-77
2024/02/09 07:08:11;;;;;;;3.78;3.20;;;;;;;;;;5911781;28;20050;-77
2024/02/09 07:11:05;;;;;;;3.70;2.03;;;;;;;;;;5911778;28;20591;-78
2024/02/09 07:13:56;;;;;;;6.03;2.40;;;;;;;;;;5910742;28;20040;-77
2024/02/09 07:16:47;;;;;;;2.85;2.60;;;;;;;;;;5911403;28;20041;-77
2024/02/09 07:19:38;;;;;;;4.93;4.10;;;;;;;;;;5910100;28;20050;-77
2024/02/09 07:22:30;;;;;;;3.90;2.40;;;;;;;;;;5911748;28;20406;-77
2024/02/09 07:25:21;;;;;;;5.20;2.80;;;;;;;;;;5911278;28;20145;-77
2024/02/09 07:28:13;;;;;;;7.50;3.95;;;;;;;;;;5911248;28;20052;-77
2024/02/09 07:31:04;;;;;;;6.35;5.43;;;;;;;;;;5911025;28;20048;-78
2024/02/09 07:33:55;;;;;;;5.68;4.85;;;;;;;;;;5911459;28;20417;-77
2024/02/09 07:36:46;;;;;;;15.13;7.53;;;;;;;;;;5909761;28;20040;-77
2024/02/09 07:39:37;;;;;;;8.35;4.90;;;;;;;;;;5910002;28;20036;-77
2024/02/09 07:42:28;;;;;;;5.93;5.25;;;;;;;;;;5926602;28;20048;-77
2024/02/09 07:45:20;;;;;;;10.57;7.85;;;;;;;;;;5893531;28;20045;-77
2024/02/09 07:48:11;;;;;;;7.63;6.57;;;;;;;;;;5910702;28;20060;-77
2024/02/09 07:51:02;;;;;;;7.40;4.65;;;;;;;;;;5909316;28;20075;-77
2024/02/09 07:53:53;;;;;;;8.27;5.07;;;;;;;;;;5911363;28;20052;-77
2024/02/09 07:56:45;;;;;;;7.35;5.03;;;;;;;;;;5926215;28;20048;-77
2024/02/09 07:59:36;;;;;;;10.57;5.93;;;;;;;;;;5909468;28;20063;-78
2024/02/09 08:02:30;;;;;;;7.97;4.70;;;;;;;;;;5910501;28;20044;-78
2024/02/09 08:05:21;;;;;;;5.28;4.07;;;;;;;;;;5910654;28;20052;-78
2024/02/09 08:08:12;;;;;;;8.57;4.70;;;;;;;;;;5910594;28;20523;-77
2024/02/09 08:11:03;;;;;;;9.30;5.30;;;;;;;;;;5925649;28;20045;-78
2024/02/09 08:13:55;;;;;;;4.18;3.08;;;;;;;;;;5911166;28;20064;-77
2024/02/09 08:16:46;;;;;;;9.32;5.13;;;;;;;;;;5925766;28;20032;-77
2024/02/09 08:19:37;;;;;;;9.55;5.35;;;;;;;;;;5925374;28;20118;-77
2024/02/09 08:22:31;;;;;;;13.27;5.10;;;;;;;;;;5910151;28;20056;-77
2024/02/09 08:25:21;;;;;;;7.43;6.25;;;;;;;;;;5908702;28;20044;-77
2024/02/09 08:28:12;;;;;;;10.25;6.00;;;;;;;;;;5910055;28;20040;-77
2024/02/09 08:31:06;;;;;;;7.43;6.40;;;;;;;;;;5925246;28;20590;-78
2024/02/09 08:33:57;;;;;;;10.00;6.22;;;;;;;;;;5925769;28;20571;-77
2024/02/09 08:36:49;;;;;;;15.32;5.53;;;;;;;;;;5908392;28;20383;-77
2024/02/09 08:39:43;;;;;;;8.10;5.82;;;;;;;;;;5924841;28;20040;-77
2024/02/09 08:42:35;;;;;;;7.43;4.63;;;;;;;;;;5924185;28;20048;-77
2024/02/09 08:45:27;;;;;;;9.02;5.15;;;;;;;;;;5908588;28;20060;-77
2024/02/09 08:48:18;;;;;;;6.22;4.45;;;;;;;;;;5909258;28;20132;-77
2024/02/09 08:51:10;;;;;;;5.35;4.13;;;;;;;;;;5908215;28;20178;-77
2024/02/09 08:54:01;;;;;;;7.88;5.75;;;;;;;;;;5908169;28;20048;-77
2024/02/09 08:56:52;;;;;;;6.22;4.65;;;;;;;;;;5908439;28;20044;-77
2024/02/09 08:59:42;;;;;;;9.43;8.13;;;;;;;;;;5909494;28;20048;-78
2024/02/09 09:02:33;;;;;;;13.50;9.57;;;;;;;;;;5924233;28;20047;-78
2024/02/09 09:05:25;;;;;;;11.93;8.25;;;;;;;;;;5909150;28;20101;-77
2024/02/09 09:08:16;;;;;;;9.43;6.15;;;;;;;;;;5908881;28;20053;-78
2024/02/09 09:11:07;;;;;;;9.05;6.50;;;;;;;;;;5907365;28;20729;-78
2024/02/09 09:13:57;;;;;;;15.23;8.68;;;;;;;;;;5909314;28;20052;-78
2024/02/09 09:16:48;;;;;;;14.68;11.10;;;;;;;;;;5907592;28;20127;-78
2024/02/09 09:19:41;;;;;;;11.98;5.65;;;;;;;;;;5907673;28;20052;-78
2024/02/09 09:22:32;;;;;;;7.65;5.20;;;;;;;;;;5908668;28;20131;-78
2024/02/09 09:25:22;;;;;;;4.85;3.40;;;;;;;;;;5907624;28;20056;-78
2024/02/09 09:28:14;;;;;;;10.38;5.78;;;;;;;;;;5908640;28;20048;-78
2024/02/09 09:31:08;;;;;;;5.07;4.38;;;;;;;;;;5907155;28;20075;-78
2024/02/09 09:33:59;;;;;;;6.32;4.80;;;;;;;;;;5909119;28;20087;-78
2024/02/09 09:36:50;;;;;;;7.50;5.38;;;;;;;;;;5907203;28;20448;-78
2024/02/09 09:39:41;;;;;;;12.90;6.68;;;;;;;;;;5923888;28;20040;-78
2024/02/09 09:42:31;;;;;;;20.95;11.98;;;;;;;;;;5907072;28;20410;-78
2024/02/09 09:45:23;;;;;;;11.25;7.72;;;;;;;;;;5908283;28;20051;-78
2024/02/09 09:48:15;;;;;;;8.25;5.63;;;;;;;;;;5907306;28;20081;-78
2024/02/09 09:51:06;;;;;;;15.73;6.78;;;;;;;;;;5906923;28;20043;-78
2024/02/09 09:53:57;;;;;;;7.07;5.03;;;;;;;;;;5909204;28;20079;-78
2024/02/09 09:56:49;;;;;;;5.80;4.25;;;;;;;;;;5912045;28;20086;-78
2024/02/09 09:59:40;;;;;;;8.18;5.18;;;;;;;;;;5913274;28;20059;-78
2024/02/09 10:02:32;;;;;;;14.25;4.32;;;;;;;;;;5895174;28;20063;-78
2024/02/09 10:05:22;;;;;;;6.32;4.88;;;;;;;;;;5912888;28;20094;-78
2024/02/09 10:08:14;;;;;;;5.40;4.40;;;;;;;;;;5911713;28;20502;-78
2024/02/09 10:11:08;;;;;;;5.18;4.18;;;;;;;;;;5928196;28;20086;-78
2024/02/09 10:13:59;;;;;;;8.70;5.03;;;;;;;;;;5913431;28;20041;-78
2024/02/09 10:16:49;;;;;;;12.18;8.25;;;;;;;;;;5911737;28;20040;-78
2024/02/09 10:19:42;;;;;;;13.57;6.45;;;;;;;;;;5913079;28;20271;-78
2024/02/09 10:22:33;;;;;;;9.20;6.65;;;;;;;;;;5927840;28;20036;-78
2024/02/09 10:25:24;;;;;;;9.65;6.13;;;;;;;;;;5911254;28;20508;-78
2024/02/09 10:28:15;;;;;;;14.48;6.07;;;;;;;;;;5912569;28;20048;-78
2024/02/09 10:31:06;;;;;;;9.52;5.13;;;;;;;;;;5912335;28;20444;-78
2024/02/09 10:33:57;;;;;;;5.63;3.83;;;;;;;;;;5913087;28;20044;-78
2024/02/09 10:36:48;;;;;;;7.72;4.63;;;;;;;;;;5927453;28;20047;-78
2024/02/09 10:39:39;;;;;;;4.97;3.08;;;;;;;;;;5912153;28;20041;-78
2024/02/09 10:42:31;;;;;;;6.70;4.90;;;;;;;;;;5912540;28;20045;-78
2024/02/09 10:45:26;;;;;;;6.57;4.88;;;;;;;;;;5910869;28;20049;-78
2024/02/09 10:48:21;;;;;;;14.15;4.50;;;;;;;;;;5927344;28;20049;-78
2024/02/09 10:51:17;;;;;;;11.07;5.75;;;;;;;;;;5910765;28;20601;-78
2024/02/09 10:54:23;;;;;;;10.30;5.93;;;;;;;;;;5910794;28;20166;-78
2024/02/09 10:57:14;;;;;;;13.27;5.80;;;;;;;;;;5926583;28;20052;-78
2024/02/09 11:00:10;;;;;;;29.88;15.20;;;;;;;;;;5911740;28;20044;-78
2024/02/09 11:03:01;;;;;;;42.97;15.90;;;;;;;;;;5911677;28;20052;-78
2024/02/09 11:05:52;;;;;;;26.48;12.63;;;;;;;;;;5912102;28;20049;-78
2024/02/09 11:08:44;;;;;;;28.70;9.93;;;;;;;;;;5909652;28;20115;-78
2024/02/09 11:11:38;;;;;;;16.33;7.30;;;;;;;;;;5926864;28;20490;-78
2024/02/09 11:14:30;;;;;;;18.02;6.47;;;;;;;;;;5894125;28;20048;-78
2024/02/09 11:17:21;;;;;;;19.65;5.53;;;;;;;;;;5911320;28;20064;-78
2024/02/09 11:20:13;;;;;;;11.60;6.00;;;;;;;;;;5910088;28;20056;-78
2024/02/09 11:23:05;;;;;;;6.82;4.75;;;;;;;;;;5893628;28;20436;-78
2024/02/09 11:26:00;;;;;;;10.50;5.68;;;;;;;;;;5911880;28;20418;-78
2024/02/09 11:28:51;;;;;;;13.80;7.28;;;;;;;;;;5910245;28;20041;-78
2024/02/09 11:31:52;;;;;;;7.38;4.68;;;;;;;;;;5911006;28;20041;-78
2024/02/09 11:34:47;;;;;;;11.77;4.43;;;;;;;;;;5910043;28;20383;-78
2024/02/09 11:37:45;;;;;;;11.93;4.70;;;;;;;;;;5911203;28;20441;-79
2024/02/09 11:40:36;;;;;;;23.27;8.32;;;;;;;;;;5893449;28;20075;-78
2024/02/09 11:43:29;;;;;;;11.68;7.45;;;;;;;;;;5909758;28;20052;-79
2024/02/09 11:46:20;;;;;;;8.52;6.40;;;;;;;;;;5926152;28;20387;-78
2024/02/09 11:49:12;;;;;;;10.40;6.07;;;;;;;;;;5909696;28;20498;-78
2024/02/09 11:52:06;;;;;;;19.38;5.90;;;;;;;;;;5926212;28;20036;-79
2024/02/09 11:55:01;;;;;;;20.83;5.60;;;;;;;;;;5909823;28;20056;-78
2024/02/09 11:57:52;;;;;;;8.20;4.55;;;;;;;;;;5926057;28;20040;-78
2024/02/09 12:00:43;;;;;;;5.95;3.90;;;;;;;;;;5910634;28;20501;-78
2024/02/09 12:03:34;;;;;;;18.30;5.55;;;;;;;;;;5925972;28;20044;-78
2024/02/09 12:06:27;;;;;;;8.20;5.68;;;;;;;;;;5925804;28;20692;-78
2024/02/09 12:09:18;;;;;;;23.80;9.00;;;;;;;;;;5925759;28;20425;-78
2024/02/09 12:12:09;;;;;;;15.88;5.13;;;;;;;;;;5925509;28;20041;-78
2024/02/09 12:15:01;;;;;;;6.18;3.58;;;;;;;;;;5926019;28;20040;-78
2024/02/09 12:17:52;;;;;;;11.30;4.20;;;;;;;;;;5909130;28;20075;-78
2024/02/09 12:20:43;;;;;;;12.15;3.28;;;;;;;;;;5910392;28;20068;-79
2024/02/09 12:23:34;;;;;;;8.73;4.75;;;;;;;;;;5910098;28;20131;-79
2024/02/09 12:26:25;;;;;;;10.27;4.18;;;;;;;;;;5909994;28;20044;-78
2024/02/09 12:29:19;;;;;;;17.17;5.55;;;;;;;;;;5910075;28;20179;-78
2024/02/09 12:32:10;;;;;;;6.50;3.95;;;;;;;;;;5908266;28;20052;-78
2024/02/09 12:35:02;;;;;;;15.00;4.70;;;;;;;;;;5925342;28;20063;-78
2024/02/09 12:37:56;;;;;;;7.82;4.60;;;;;;;;;;5909265;28;20196;-78
2024/02/09 12:40:48;;;;;;;8.65;5.15;;;;;;;;;;5924617;28;20045;-78
2024/02/09 12:43:39;;;;;;;6.85;5.55;;;;;;;;;;5909503;28;20051;-78
2024/02/09 12:46:30;;;;;;;10.98;5.72;;;;;;;;;;5909281;28;20135;-79
2024/02/09 12:49:21;;;;;;;12.82;6.55;;;;;;;;;;5924791;28;20056;-79
2024/02/09 12:52:14;;;;;;;10.65;7.03;;;;;;;;;;5909156;28;20041;-79
2024/02/09 12:55:07;;;;;;;12.38;7.07;;;;;;;;;;5907940;28;20048;-79
2024/02/09 12:57:59;;;;;;;47.33;16.73;;;;;;;;;;5925469;28;20115;-79
2024/02/09 13:00:52;;;;;;;32.22;12.18;;;;;;;;;;5908052;28;20414;-79
2024/02/09 13:03:44;;;;;;;30.65;12.82;;;;;;;;;;5909081;28;20064;-79
2024/02/09 13:06:35;;;;;;;25.52;11.93;;;;;;;;;;5907787;28;20036;-79
2024/02/09 13:09:26;;;;;;;15.38;8.40;;;;;;;;;;5907932;28;20063;-79
2024/02/09 13:12:17;;;;;;;14.05;7.95;;;;;;;;;;5908860;28;20417;-79
2024/02/09 13:15:10;;;;;;;14.35;5.85;;;;;;;;;;5908982;28;20497;-79
2024/02/09 13:18:02;;;;;;;17.08;7.63;;;;;;;;;;5924176;28;20131;-79
2024/02/09 13:20:53;;;;;;;13.93;6.32;;;;;;;;;;5924610;28;20587;-79
2024/02/09 13:23:45;;;;;;;6.70;4.13;;;;;;;;;;5923902;28;20127;-79
2024/02/09 13:26:36;;;;;;;16.20;6.40;;;;;;;;;;5908475;28;20048;-79
2024/02/09 13:29:27;;;;;;;35.22;7.65;;;;;;;;;;5907545;28;20504;-78
2024/02/09 13:32:18;;;;;;;10.25;4.10;;;;;;;;;;5907953;28;20041;-78
2024/02/09 13:35:13;;;;;;;14.23;4.65;;;;;;;;;;5907180;28;20040;-78
2024/02/09 13:38:04;;;;;;;15.30;5.03;;;;;;;;;;5908661;28;20513;-78
2024/02/09 13:40:54;;;;;;;8.45;4.03;;;;;;;;;;5908942;28;20048;-79
2024/02/09 13:43:45;;;;;;;49.03;19.45;;;;;;;;;;5908251;28;20086;-79
2024/02/09 13:46:36;;;;;;;31.83;11.90;;;;;;;;;;5908504;28;20078;-79
2024/02/09 13:49:27;;;;;;;16.98;7.05;;;;;;;;;;5908541;28;20421;-79
2024/02/09 13:52:19;;;;;;;21.70;7.80;;;;;;;;;;5908251;28;20454;-79
2024/02/09 13:55:14;;;;;;;23.23;7.15;;;;;;;;;;5908161;28;20049;-78
2024/02/09 13:58:06;;;;;;;18.05;9.45;;;;;;;;;;5923062;28;20040;-79
2024/02/09 14:00:57;;;;;;;43.22;20.80;;;;;;;;;;5890866;28;20041;-79
2024/02/09 14:03:51;;;;;;;36.53;21.00;;;;;;;;;;5923448;28;20498;-78
2024/02/09 14:06:42;;;;;;;44.72;21.17;;;;;;;;;;5907993;28;20058;-78
2024/02/09 14:09:35;;;;;;;22.25;8.63;;;;;;;;;;5906993;28;20064;-78
2024/02/09 14:12:27;;;;;;;11.63;6.93;;;;;;;;;;5906667;28;20048;-78
2024/02/09 14:15:18;;;;;;;13.18;7.88;;;;;;;;;;5923056;28;20055;-78
2024/02/09 14:18:10;;;;;;;13.13;7.90;;;;;;;;;;5906667;28;20049;-78
2024/02/09 14:21:05;;;;;;;28.23;8.55;;;;;;;;;;5907769;28;20048;-78
2024/02/09 14:23:56;;;;;;;21.00;6.35;;;;;;;;;;5923898;28;20143;-78
2024/02/09 14:26:50;;;;;;;11.30;5.85;;;;;;;;;;5923175;28;20059;-78
2024/02/09 14:29:41;;;;;;;15.52;5.50;;;;;;;;;;5907700;28;20521;-78
2024/02/09 14:32:32;;;;;;;11.73;5.78;;;;;;;;;;5906120;28;20430;-78
2024/02/09 14:35:23;;;;;;;9.75;6.13;;;;;;;;;;5907627;28;20506;-78
2024/02/09 14:38:17;;;;;;;12.93;6.28;;;;;;;;;;5923268;28;20052;-78
2024/02/09 14:41:08;;;;;;;26.05;9.93;;;;;;;;;;5906353;28;20041;-78
2024/02/09 14:43:59;;;;;;;12.57;7.15;;;;;;;;;;5910448;28;20336;-78
2024/02/09 14:46:50;;;;;;;12.10;5.88;;;;;;;;;;5910899;28;20040;-78
2024/02/09 14:49:41;;;;;;;16.67;5.40;;;;;;;;;;5912041;28;20040;-78
2024/02/09 14:52:32;;;;;;;8.05;3.85;;;;;;;;;;5910179;28;20048;-78
2024/02/09 14:55:24;;;;;;;6.47;4.22;;;;;;;;;;5910107;28;20040;-78
2024/02/09 14:58:14;;;;;;;7.13;3.58;;;;;;;;;;5910411;28;20470;-78
2024/02/09 15:01:05;;;;;;;8.85;4.60;;;;;;;;;;5927021;28;20045;-78
2024/02/09 15:03:56;;;;;;;6.80;4.15;;;;;;;;;;5927593;28;20171;-78
2024/02/09 15:06:48;;;;;;;16.20;4.03;;;;;;;;;;5910261;28;20051;-78
2024/02/09 15:09:40;;;;;;;7.30;3.90;;;;;;;;;;5911366;28;20449;-78
2024/02/09 15:12:31;;;;;;;10.68;5.43;;;;;;;;;;5926413;28;20099;-78
2024/02/09 15:15:23;;;;;;;9.55;5.18;;;;;;;;;;5911365;28;20037;-78
2024/02/09 15:18:15;;;;;;;7.03;5.22;;;;;;;;;;5926474;28;20525;-78
2024/02/09 15:21:06;;;;;;;6.38;4.07;;;;;;;;;;5926240;28;20047;-78
2024/02/09 15:23:57;;;;;;;6.82;5.03;;;;;;;;;;5912163;28;20232;-78
2024/02/09 15:26:47;;;;;;;10.00;5.30;;;;;;;;;;5926783;28;20064;-78
2024/02/09 15:29:38;;;;;;;19.67;6.80;;;;;;;;;;5911112;28;20040;-78
2024/02/09 15:32:29;;;;;;;29.40;7.05;;;;;;;;;;5926149;28;20045;-78
2024/02/09 15:35:20;;;;;;;10.32;6.32;;;;;;;;;;5926412;28;20189;-78
2024/02/09 15:38:11;;;;;;;12.27;5.68;;;;;;;;;;5910917;28;20082;-78
2024/02/09 15:41:02;;;;;;;10.20;4.60;;;;;;;;;;5911155;28;20079;-78
2024/02/09 15:43:52;;;;;;;11.77;6.05;;;;;;;;;;5926636;28;20040;-78
2024/02/09 15:46:44;;;;;;;19.80;6.55;;;;;;;;;;5909002;28;20417;-78
2024/02/09 15:49:35;;;;;;;11.82;7.18;;;;;;;;;;5910431;28;20127;-78
2024/02/09 15:52:26;;;;;;;6.57;5.50;;;;;;;;;;5926018;28;20434;-78
2024/02/09 15:55:18;;;;;;;8.63;5.78;;;;;;;;;;5910059;28;20521;-78
2024/02/09 15:58:09;;;;;;;9.68;4.72;;;;;;;;;;5908985;28;20044;-78
2024/02/09 16:01:00;;;;;;;6.07;4.38;;;;;;;;;;5926468;28;20047;-79
2024/02/09 16:03:54;;;;;;;10.57;5.85;;;;;;;;;;5910765;28;20703;-78
2024/02/09 16:06:44;;;;;;;12.43;6.05;;;;;;;;;;5925292;28;20048;-78
2024/02/09 16:09:35;;;;;;;7.30;5.53;;;;;;;;;;5925570;28;20055;-78
2024/02/09 16:12:26;;;;;;;7.00;5.47;;;;;;;;;;5909861;28;20045;-78
2024/02/09 16:15:21;;;;;;;4.82;3.97;;;;;;;;;;5925059;28;20040;-78
2024/02/09 16:18:11;;;;;;;9.10;5.40;;;;;;;;;;5908589;28;20075;-78
2024/02/09 16:21:02;;;;;;;12.18;6.13;;;;;;;;;;5908717;28;20051;-78
2024/02/09 16:23:53;;;;;;;12.50;5.32;;;;;;;;;;5925750;28;20520;-78
2024/02/09 16:26:44;;;;;;;9.25;6.70;;;;;;;;;;5924883;28;20045;-78
2024/02/09 16:29:35;;;;;;;10.80;5.43;;;;;;;;;;5908307;28;20044;-78
2024/02/09 16:32:26;;;;;;;6.90;4.90;;;;;;;;;;5907986;28;20040;-78
2024/02/09 16:35:18;;;;;;;10.93;6.28;;;;;;;;;;5909324;28;20482;-78
2024/02/09 16:38:09;;;;;;;10.95;7.60;;;;;;;;;;5925064;28;20047;-78
2024/02/09 16:41:00;;;;;;;12.57;9.63;;;;;;;;;;5925398;28;20051;-78
2024/02/09 16:43:51;;;;;;;35.30;13.57;;;;;;;;;;5909826;28;20057;-78
2024/02/09 16:46:42;;;;;;;23.05;13.32;;;;;;;;;;5907600;28;20449;-78
2024/02/09 16:49:33;;;;;;;21.55;12.63;;;;;;;;;;5908165;28;20129;-78
2024/02/09 16:52:23;;;;;;;30.55;13.43;;;;;;;;;;5907975;28;20182;-78
2024/02/09 16:55:14;;;;;;;24.65;14.98;;;;;;;;;;5908046;28;20130;-78
2024/02/09 16:58:05;;;;;;;15.02;12.30;;;;;;;;;;5907719;28;20056;-78
2024/02/09 17:00:56;;;;;;;21.83;14.68;;;;;;;;;;5924937;28;20128;-78
2024/02/09 17:03:47;;;;;;;16.55;12.63;;;;;;;;;;5924453;28;20037;-78
2024/02/09 17:06:39;;;;;;;20.10;12.77;;;;;;;;;;5906997;28;20076;-78
2024/02/09 17:09:30;;;;;;;19.90;10.63;;;;;;;;;;5907503;28;20047;-78
2024/02/09 17:12:20;;;;;;;18.83;10.48;;;;;;;;;;5907283;28;20052;-78
2024/02/09 17:15:11;;;;;;;17.08;10.60;;;;;;;;;;5890857;28;20052;-78
2024/02/09 17:18:03;;;;;;;15.25;9.15;;;;;;;;;;5924215;28;20056;-78
2024/02/09 17:20:54;;;;;;;14.02;7.78;;;;;;;;;;5891398;28;20083;-78
2024/02/09 17:23:47;;;;;;;9.00;6.10;;;;;;;;;;5924058;28;20047;-78
2024/02/09 17:26:38;;;;;;;7.50;5.45;;;;;;;;;;5923756;28;20125;-78
2024/02/09 17:29:29;;;;;;;8.52;6.07;;;;;;;;;;5924057;28;20059;-78
2024/02/09 17:32:20;;;;;;;12.27;6.60;;;;;;;;;;5906866;28;20115;-78
2024/02/09 17:35:10;;;;;;;21.75;15.23;;;;;;;;;;5907169;28;20075;-78
2024/02/09 17:38:01;;;;;;;21.88;9.43;;;;;;;;;;5907318;28;20169;-78
2024/02/09 17:40:52;;;;;;;19.33;12.75;;;;;;;;;;5908752;28;20040;-78
2024/02/09 17:43:43;;;;;;;27.23;14.65;;;;;;;;;;5908549;28;20112;-78
2024/02/09 17:46:34;;;;;;;43.50;18.42;;;;;;;;;;5923921;28;20051;-78
2024/02/09 17:49:26;;;;;;;28.65;20.00;;;;;;;;;;5907093;28;20052;-78
2024/02/09 17:52:17;;;;;;;35.70;23.13;;;;;;;;;;5923439;28;20045;-78
2024/02/09 17:55:09;;;;;;;46.40;23.83;;;;;;;;;;5906875;28;20102;-78
2024/02/09 17:57:59;;;;;;;36.88;19.88;;;;;;;;;;5907546;28;20406;-78
2024/02/09 18:00:52;;;;;;;15.45;12.18;;;;;;;;;;5907325;28;20063;-78
2024/02/09 18:03:43;;;;;;;15.30;11.75;;;;;;;;;;5908193;28;20036;-78
2024/02/09 18:06:35;;;;;;;23.35;12.38;;;;;;;;;;5906859;28;20462;-78
2024/02/09 18:09:27;;;;;;;20.00;11.63;;;;;;;;;;5908067;28;20075;-78
2024/02/09 18:12:18;;;;;;;17.67;11.00;;;;;;;;;;5907030;28;20059;-78
2024/02/09 18:15:09;;;;;;;14.80;9.90;;;;;;;;;;5923424;28;20051;-78
2024/02/09 18:18:00;;;;;;;13.00;8.40;;;;;;;;;;5911058;28;20048;-78
2024/02/09 18:20:52;;;;;;;30.02;14.45;;;;;;;;;;5928610;28;20051;-78
2024/02/09 18:23:43;;;;;;;28.52;16.05;;;;;;;;;;5911067;28;20045;-78
2024/02/09 18:26:33;;;;;;;16.00;10.15;;;;;;;;;;5912761;28;20045;-78
2024/02/09 18:29:25;;;;;;;33.35;14.60;;;;;;;;;;5927823;28;20055;-78
2024/02/09 18:32:16;;;;;;;18.73;13.25;;;;;;;;;;5894480;28;20049;-78
2024/02/09 18:35:07;;;;;;;15.77;10.45;;;;;;;;;;5911055;28;20179;-78
2024/02/09 18:37:58;;;;;;;24.90;11.98;;;;;;;;;;5928093;28;20044;-78
2024/02/09 18:40:50;;;;;;;13.43;10.20;;;;;;;;;;5927457;28;20052;-78
2024/02/09 18:43:41;;;;;;;11.30;7.25;;;;;;;;;;5910866;28;20052;-78
2024/02/09 18:46:32;;;;;;;12.30;8.20;;;;;;;;;;5927111;28;20126;-78
2024/02/09 18:49:28;;;;;;;13.57;9.02;;;;;;;;;;5912052;28;20052;-78
2024/02/09 18:52:20;;;;;;;25.95;10.80;;;;;;;;;;5910599;28;20079;-78